sensor_id;sensor_type;location;lat;lon;timestamp;pressure;altitude;pressure_sealevel;temperature;humidity
66396;BME280;53207;51.378;-1.342;2022-11-15T00:01:08;98979.79;;;22.86;40.26
66396;BME280;53207;51.378;-1.342;2022-11-15T00:03:36;98977.24;;;23.15;40.02
66396;BME280;53207;51.378;-1.342;2022-11-15T00:06:04;98970.44;;;23.10;40.05
66396;BME280;53207;51.378;-1.342;2022-11-15T00:08:32;98964.59;;;23.03;40.24
66396;BME280;53207;51.378;-1.342;2022-11-15T00:11:01;98958.25;;;23.07;39.93
66396;BME280;53207;51.378;-1.342;2022-11-15T00:13:29;98957.59;;;23.01;39.92
66396;BME280;53207;51.378;-1.342;2022-11-15T00:15:57;98955.24;;;23.02;39.84
66396;BME280;53207;51.378;-1.342;2022-11-15T00:18:25;98944.71;;;23.00;39.68
66396;BME280;53207;51.378;-1.342;2022-11-15T00:20:53;98935.58;;;23.00;39.57
66396;BME280;53207;51.378;-1.342;2022-11-15T00:23:20;98933.01;;;22.93;39.69
66396;BME280;53207;51.378;-1.342;2022-11-15T00:25:55;98928.65;;;22.92;39.57
66396;BME280;53207;51.378;-1.342;2022-11-15T00:28:23;98922.35;;;22.90;39.54
66396;BME280;53207;51.378;-1.342;2022-11-15T00:30:50;98921.13;;;22.92;39.42
66396;BME280;53207;51.378;-1.342;2022-11-15T00:33:17;98909.34;;;22.92;39.35
66396;BME280;53207;51.378;-1.342;2022-11-15T00:35:44;98901.98;;;22.91;39.29
66396;BME280;53207;51.378;-1.342;2022-11-15T00:38:11;98889.01;;;22.89;39.23
66396;BME280;53207;51.378;-1.342;2022-11-15T00:40:39;98883.03;;;23.09;39.25
66396;BME280;53207;51.378;-1.342;2022-11-15T00:43:06;98876.31;;;22.87;39.19
66396;BME280;53207;51.378;-1.342;2022-11-15T00:45:33;98867.59;;;22.84;39.17
66396;BME280;53207;51.378;-1.342;2022-11-15T00:48:00;98857.30;;;23.03;39.18
66396;BME280;53207;51.378;-1.342;2022-11-15T00:50:28;98853.01;;;22.80;39.10
66396;BME280;53207;51.378;-1.342;2022-11-15T00:52:55;98844.07;;;23.00;39.10
66396;BME280;53207;51.378;-1.342;2022-11-15T00:55:22;98841.84;;;22.80;39.03
66396;BME280;53207;51.378;-1.342;2022-11-15T00:57:49;98837.05;;;22.99;39.03
66396;BME280;53207;51.378;-1.342;2022-11-15T01:00:17;98831.32;;;22.75;39.03
66396;BME280;53207;51.378;-1.342;2022-11-15T01:02:44;98829.37;;;22.95;39.00
66396;BME280;53207;51.378;-1.342;2022-11-15T01:05:11;98827.42;;;22.74;38.92
66396;BME280;53207;51.378;-1.342;2022-11-15T01:07:38;98822.69;;;22.94;38.89
66396;BME280;53207;51.378;-1.342;2022-11-15T01:10:07;98814.76;;;22.74;38.83
66396;BME280;53207;51.378;-1.342;2022-11-15T01:12:34;98801.32;;;22.71;38.81
66396;BME280;53207;51.378;-1.342;2022-11-15T01:15:01;98795.68;;;22.69;38.79
66396;BME280;53207;51.378;-1.342;2022-11-15T01:17:29;98800.94;;;22.70;38.74
66396;BME280;53207;51.378;-1.342;2022-11-15T01:19:57;98795.57;;;22.67;38.75
66396;BME280;53207;51.378;-1.342;2022-11-15T01:22:24;98797.40;;;22.64;38.77
66396;BME280;53207;51.378;-1.342;2022-11-15T01:24:51;98797.92;;;22.65;38.69
66396;BME280;53207;51.378;-1.342;2022-11-15T01:27:18;98791.24;;;22.64;38.67
66396;BME280;53207;51.378;-1.342;2022-11-15T01:29:45;98790.50;;;22.62;38.69
66396;BME280;53207;51.378;-1.342;2022-11-15T01:32:12;98784.90;;;22.58;38.67
66396;BME280;53207;51.378;-1.342;2022-11-15T01:34:39;98769.96;;;23.05;38.66
66396;BME280;53207;51.378;-1.342;2022-11-15T01:37:07;98763.35;;;23.04;38.64
66396;BME280;53207;51.378;-1.342;2022-11-15T01:39:34;98752.54;;;22.54;38.63
66396;BME280;53207;51.378;-1.342;2022-11-15T01:42:02;98750.59;;;22.54;38.58
66396;BME280;53207;51.378;-1.342;2022-11-15T01:44:39;98743.71;;;22.55;38.54
66396;BME280;53207;51.378;-1.342;2022-11-15T01:47:09;98736.81;;;22.77;38.51
66396;BME280;53207;51.378;-1.342;2022-11-15T01:49:42;98732.79;;;22.55;38.48
66396;BME280;53207;51.378;-1.342;2022-11-15T01:52:15;98724.17;;;22.52;38.47
66396;BME280;53207;51.378;-1.342;2022-11-15T01:54:44;98716.28;;;22.54;38.42
66396;BME280;53207;51.378;-1.342;2022-11-15T01:57:12;98709.63;;;22.53;38.38
66396;BME280;53207;51.378;-1.342;2022-11-15T01:59:43;98707.43;;;22.71;38.40
66396;BME280;53207;51.378;-1.342;2022-11-15T02:02:11;98705.54;;;22.71;38.36
66396;BME280;53207;51.378;-1.342;2022-11-15T02:04:41;98698.33;;;22.90;38.44
66396;BME280;53207;51.378;-1.342;2022-11-15T02:07:11;98691.30;;;22.62;38.44
66396;BME280;53207;51.378;-1.342;2022-11-15T02:09:39;98688.51;;;22.43;38.36
66396;BME280;53207;51.378;-1.342;2022-11-15T02:12:09;98691.40;;;22.65;38.32
66396;BME280;53207;51.378;-1.342;2022-11-15T02:14:38;98687.90;;;22.43;38.29
66396;BME280;53207;51.378;-1.342;2022-11-15T02:17:18;98683.97;;;22.38;38.30
66396;BME280;53207;51.378;-1.342;2022-11-15T02:20:08;98675.75;;;22.38;38.30
66396;BME280;53207;51.378;-1.342;2022-11-15T02:22:50;98673.40;;;22.61;38.23
66396;BME280;53207;51.378;-1.342;2022-11-15T02:25:38;98671.62;;;22.59;38.20
66396;BME280;53207;51.378;-1.342;2022-11-15T02:28:21;98662.00;;;22.31;38.25
66396;BME280;53207;51.378;-1.342;2022-11-15T02:30:55;98659.93;;;22.56;38.16
66396;BME280;53207;51.378;-1.342;2022-11-15T02:33:33;98650.60;;;22.31;38.18
66396;BME280;53207;51.378;-1.342;2022-11-15T02:36:06;98641.41;;;22.30;38.16
66396;BME280;53207;51.378;-1.342;2022-11-15T02:38:43;98638.40;;;22.50;38.15
66396;BME280;53207;51.378;-1.342;2022-11-15T02:41:16;98635.01;;;22.49;38.12
66396;BME280;53207;51.378;-1.342;2022-11-15T02:43:48;98624.67;;;22.24;38.14
66396;BME280;53207;51.378;-1.342;2022-11-15T02:46:21;98620.17;;;22.49;38.04
66396;BME280;53207;51.378;-1.342;2022-11-15T02:48:51;98622.12;;;22.28;38.04
66396;BME280;53207;51.378;-1.342;2022-11-15T02:51:18;98615.41;;;22.47;38.04
66396;BME280;53207;51.378;-1.342;2022-11-15T02:53:46;98607.59;;;22.41;38.09
66396;BME280;53207;51.378;-1.342;2022-11-15T02:56:13;98591.76;;;22.39;38.07
66396;BME280;53207;51.378;-1.342;2022-11-15T02:58:53;98592.64;;;22.18;38.03
66396;BME280;53207;51.378;-1.342;2022-11-15T03:01:34;98592.47;;;22.40;38.01
66396;BME280;53207;51.378;-1.342;2022-11-15T03:04:16;98589.47;;;22.37;38.00
66396;BME280;53207;51.378;-1.342;2022-11-15T03:06:53;98586.16;;;22.10;38.06
66396;BME280;53207;51.378;-1.342;2022-11-15T03:09:31;98584.55;;;22.15;37.97
66396;BME280;53207;51.378;-1.342;2022-11-15T03:12:06;98583.10;;;22.60;37.97
66396;BME280;53207;51.378;-1.342;2022-11-15T03:14:36;98577.75;;;22.57;37.95
66396;BME280;53207;51.378;-1.342;2022-11-15T03:17:13;98581.06;;;22.06;37.96
66396;BME280;53207;51.378;-1.342;2022-11-15T03:19:46;98570.11;;;22.03;38.00
66396;BME280;53207;51.378;-1.342;2022-11-15T03:22:16;98572.12;;;22.24;37.98
66396;BME280;53207;51.378;-1.342;2022-11-15T03:24:47;98564.10;;;22.52;37.90
66396;BME280;53207;51.378;-1.342;2022-11-15T03:27:24;98562.56;;;22.02;37.88
66396;BME280;53207;51.378;-1.342;2022-11-15T03:29:59;98558.50;;;22.46;37.91
66396;BME280;53207;51.378;-1.342;2022-11-15T03:32:30;98553.63;;;22.23;37.81
66396;BME280;53207;51.378;-1.342;2022-11-15T03:35:00;98544.33;;;22.18;37.87
66396;BME280;53207;51.378;-1.342;2022-11-15T03:37:34;98536.15;;;22.19;37.85
66396;BME280;53207;51.378;-1.342;2022-11-15T03:40:04;98529.38;;;22.17;37.82
66396;BME280;53207;51.378;-1.342;2022-11-15T03:42:35;98518.77;;;22.42;37.82
66396;BME280;53207;51.378;-1.342;2022-11-15T03:45:11;98515.50;;;22.14;37.81
66396;BME280;53207;51.378;-1.342;2022-11-15T03:47:43;98508.83;;;22.40;37.80
66396;BME280;53207;51.378;-1.342;2022-11-15T03:50:13;98499.01;;;22.38;37.81
66396;BME280;53207;51.378;-1.342;2022-11-15T03:52:43;98493.81;;;22.38;37.76
66396;BME280;53207;51.378;-1.342;2022-11-15T03:55:15;98491.05;;;22.36;37.79
66396;BME280;53207;51.378;-1.342;2022-11-15T03:57:44;98490.82;;;22.09;37.77
66396;BME280;53207;51.378;-1.342;2022-11-15T04:00:12;98489.32;;;22.34;37.79
66396;BME280;53207;51.378;-1.342;2022-11-15T04:02:40;98480.26;;;22.05;37.78
66396;BME280;53207;51.378;-1.342;2022-11-15T04:05:07;98473.19;;;22.27;37.82
66396;BME280;53207;51.378;-1.342;2022-11-15T04:07:35;98476.83;;;22.25;37.82
66396;BME280;53207;51.378;-1.342;2022-11-15T04:10:03;98474.83;;;22.01;37.77
66396;BME280;53207;51.378;-1.342;2022-11-15T04:12:31;98465.46;;;22.27;37.75
66396;BME280;53207;51.378;-1.342;2022-11-15T04:15:00;98455.71;;;21.99;37.76
66396;BME280;53207;51.378;-1.342;2022-11-15T04:17:28;98447.12;;;22.22;37.77
66396;BME280;53207;51.378;-1.342;2022-11-15T04:19:55;98433.85;;;22.23;37.74
66396;BME280;53207;51.378;-1.342;2022-11-15T04:22:22;98426.38;;;22.27;37.66
66396;BME280;53207;51.378;-1.342;2022-11-15T04:24:49;98424.19;;;22.20;37.75
66396;BME280;53207;51.378;-1.342;2022-11-15T04:27:17;98423.54;;;22.17;37.78
66396;BME280;53207;51.378;-1.342;2022-11-15T04:29:44;98426.24;;;21.91;37.78
66396;BME280;53207;51.378;-1.342;2022-11-15T04:32:11;98422.16;;;22.15;37.83
66396;BME280;53207;51.378;-1.342;2022-11-15T04:34:38;98419.68;;;22.15;37.81
66396;BME280;53207;51.378;-1.342;2022-11-15T04:37:06;98423.27;;;22.15;37.81
66396;BME280;53207;51.378;-1.342;2022-11-15T04:39:33;98423.66;;;22.12;37.83
66396;BME280;53207;51.378;-1.342;2022-11-15T04:42:00;98414.18;;;22.11;37.83
66396;BME280;53207;51.378;-1.342;2022-11-15T04:44:28;98405.83;;;22.09;37.82
66396;BME280;53207;51.378;-1.342;2022-11-15T04:46:56;98401.75;;;21.81;37.81
66396;BME280;53207;51.378;-1.342;2022-11-15T04:49:23;98394.42;;;21.56;37.84
66396;BME280;53207;51.378;-1.342;2022-11-15T04:51:50;98395.55;;;22.04;37.84
66396;BME280;53207;51.378;-1.342;2022-11-15T04:54:17;98392.67;;;22.07;37.78
66396;BME280;53207;51.378;-1.342;2022-11-15T04:56:45;98389.13;;;22.03;37.82
66396;BME280;53207;51.378;-1.342;2022-11-15T04:59:12;98383.84;;;21.72;37.87
66396;BME280;53207;51.378;-1.342;2022-11-15T05:01:39;98377.97;;;21.98;37.86
66396;BME280;53207;51.378;-1.342;2022-11-15T05:04:07;98369.31;;;21.98;37.83
66396;BME280;53207;51.378;-1.342;2022-11-15T05:06:34;98359.09;;;21.98;37.81
66396;BME280;53207;51.378;-1.342;2022-11-15T05:09:01;98362.17;;;21.97;37.81
66396;BME280;53207;51.378;-1.342;2022-11-15T05:11:28;98360.72;;;21.96;37.80
66396;BME280;53207;51.378;-1.342;2022-11-15T05:13:56;98349.98;;;21.94;37.82
66396;BME280;53207;51.378;-1.342;2022-11-15T05:16:23;98354.74;;;21.94;37.80
66396;BME280;53207;51.378;-1.342;2022-11-15T05:18:51;98343.62;;;21.63;37.84
66396;BME280;53207;51.378;-1.342;2022-11-15T05:21:20;98333.15;;;21.92;37.80
66396;BME280;53207;51.378;-1.342;2022-11-15T05:23:47;98327.60;;;21.92;37.76
66396;BME280;53207;51.378;-1.342;2022-11-15T05:26:16;98323.38;;;21.65;37.76
66396;BME280;53207;51.378;-1.342;2022-11-15T05:28:44;98318.55;;;21.91;37.77
66396;BME280;53207;51.378;-1.342;2022-11-15T05:31:12;98308.48;;;21.88;37.79
66396;BME280;53207;51.378;-1.342;2022-11-15T05:33:41;98304.32;;;21.59;37.84
66396;BME280;53207;51.378;-1.342;2022-11-15T05:36:13;98308.13;;;21.85;37.86
66396;BME280;53207;51.378;-1.342;2022-11-15T05:38:43;98304.67;;;21.93;37.74
66396;BME280;53207;51.378;-1.342;2022-11-15T05:41:11;98302.48;;;22.03;37.75
66396;BME280;53207;51.378;-1.342;2022-11-15T05:43:39;98295.54;;;21.81;37.89
66396;BME280;53207;51.378;-1.342;2022-11-15T05:46:08;98287.38;;;22.22;38.10
66396;BME280;53207;51.378;-1.342;2022-11-15T05:48:36;98289.31;;;22.34;38.12
66396;BME280;53207;51.378;-1.342;2022-11-15T05:51:05;98288.83;;;22.47;38.05
66396;BME280;53207;51.378;-1.342;2022-11-15T05:53:35;98270.41;;;22.36;37.89
66396;BME280;53207;51.378;-1.342;2022-11-15T05:56:03;98266.32;;;22.46;37.83
66396;BME280;53207;51.378;-1.342;2022-11-15T05:58:31;98260.14;;;22.62;37.68
66396;BME280;53207;51.378;-1.342;2022-11-15T06:00:58;98261.26;;;22.73;37.59
66396;BME280;53207;51.378;-1.342;2022-11-15T06:03:26;98261.95;;;22.59;37.51
66396;BME280;53207;51.378;-1.342;2022-11-15T06:05:53;98257.30;;;22.96;37.37
66396;BME280;53207;51.378;-1.342;2022-11-15T06:08:21;98259.53;;;22.84;37.27
66396;BME280;53207;51.378;-1.342;2022-11-15T06:10:48;98258.74;;;22.91;37.15
66396;BME280;53207;51.378;-1.342;2022-11-15T06:13:15;98255.69;;;23.00;37.09
66396;BME280;53207;51.378;-1.342;2022-11-15T06:15:42;98253.41;;;23.12;36.97
66396;BME280;53207;51.378;-1.342;2022-11-15T06:18:10;98240.58;;;22.94;36.90
66396;BME280;53207;51.378;-1.342;2022-11-15T06:20:37;98237.85;;;23.26;36.81
66396;BME280;53207;51.378;-1.342;2022-11-15T06:23:05;98229.23;;;23.07;36.71
66396;BME280;53207;51.378;-1.342;2022-11-15T06:25:32;98229.87;;;23.17;36.61
66396;BME280;53207;51.378;-1.342;2022-11-15T06:28:00;98225.57;;;22.96;36.53
66396;BME280;53207;51.378;-1.342;2022-11-15T06:30:27;98221.93;;;23.52;36.49
66396;BME280;53207;51.378;-1.342;2022-11-15T06:32:59;98223.23;;;23.36;36.43
66396;BME280;53207;51.378;-1.342;2022-11-15T06:35:27;98221.69;;;23.62;36.35
66396;BME280;53207;51.378;-1.342;2022-11-15T06:37:54;98210.87;;;23.68;36.33
66396;BME280;53207;51.378;-1.342;2022-11-15T06:40:21;98212.50;;;23.71;36.27
66396;BME280;53207;51.378;-1.342;2022-11-15T06:42:48;98204.92;;;23.57;36.25
66396;BME280;53207;51.378;-1.342;2022-11-15T06:45:16;98200.11;;;23.80;36.13
66396;BME280;53207;51.378;-1.342;2022-11-15T06:47:46;98194.93;;;23.86;36.11
66396;BME280;53207;51.378;-1.342;2022-11-15T06:50:14;98193.96;;;23.92;36.06
66396;BME280;53207;51.378;-1.342;2022-11-15T06:52:41;98192.60;;;23.46;35.97
66396;BME280;53207;51.378;-1.342;2022-11-15T06:55:09;98185.84;;;23.76;35.98
66396;BME280;53207;51.378;-1.342;2022-11-15T06:57:36;98179.91;;;23.77;35.92
66396;BME280;53207;51.378;-1.342;2022-11-15T07:00:04;98178.65;;;23.54;35.98
66396;BME280;53207;51.378;-1.342;2022-11-15T07:02:32;98180.57;;;23.86;35.90
66396;BME280;53207;51.378;-1.342;2022-11-15T07:05:00;98179.34;;;23.59;35.91
66396;BME280;53207;51.378;-1.342;2022-11-15T07:07:27;98174.28;;;23.63;35.83
66396;BME280;53207;51.378;-1.342;2022-11-15T07:09:54;98170.61;;;23.64;35.79
66396;BME280;53207;51.378;-1.342;2022-11-15T07:12:21;98169.14;;;23.92;35.77
66396;BME280;53207;51.378;-1.342;2022-11-15T07:14:49;98166.05;;;23.63;35.69
66396;BME280;53207;51.378;-1.342;2022-11-15T07:17:16;98164.28;;;24.14;35.69
66396;BME280;53207;51.378;-1.342;2022-11-15T07:19:43;98158.95;;;23.67;35.65
66396;BME280;53207;51.378;-1.342;2022-11-15T07:22:10;98160.58;;;23.70;35.69
66396;BME280;53207;51.378;-1.342;2022-11-15T07:24:38;98157.51;;;23.73;35.66
66396;BME280;53207;51.378;-1.342;2022-11-15T07:27:05;98156.41;;;23.52;35.75
66396;BME280;53207;51.378;-1.342;2022-11-15T07:29:32;98151.46;;;23.63;35.66
66396;BME280;53207;51.378;-1.342;2022-11-15T07:31:59;98150.17;;;23.66;35.65
66396;BME280;53207;51.378;-1.342;2022-11-15T07:34:27;98143.29;;;23.66;35.61
66396;BME280;53207;51.378;-1.342;2022-11-15T07:36:54;98140.22;;;23.71;35.57
66396;BME280;53207;51.378;-1.342;2022-11-15T07:39:21;98136.55;;;23.67;35.60
66396;BME280;53207;51.378;-1.342;2022-11-15T07:41:48;98132.59;;;23.67;35.56
66396;BME280;53207;51.378;-1.342;2022-11-15T07:44:15;98133.82;;;23.71;35.57
66396;BME280;53207;51.378;-1.342;2022-11-15T07:46:43;98126.68;;;23.72;35.55
66396;BME280;53207;51.378;-1.342;2022-11-15T07:49:10;98126.13;;;23.71;35.58
66396;BME280;53207;51.378;-1.342;2022-11-15T07:51:37;98117.93;;;23.68;35.59
66396;BME280;53207;51.378;-1.342;2022-11-15T07:54:04;98111.26;;;23.65;35.62
66396;BME280;53207;51.378;-1.342;2022-11-15T07:56:32;98106.93;;;23.95;35.65
66396;BME280;53207;51.378;-1.342;2022-11-15T07:58:59;98111.49;;;23.70;35.60
66396;BME280;53207;51.378;-1.342;2022-11-15T08:01:26;98100.44;;;23.65;35.68
66396;BME280;53207;51.378;-1.342;2022-11-15T08:03:53;98102.19;;;23.71;35.65
66396;BME280;53207;51.378;-1.342;2022-11-15T08:06:21;98096.65;;;23.66;35.66
66396;BME280;53207;51.378;-1.342;2022-11-15T08:08:48;98093.37;;;23.73;35.62
66396;BME280;53207;51.378;-1.342;2022-11-15T08:11:15;98097.90;;;24.20;35.61
66396;BME280;53207;51.378;-1.342;2022-11-15T08:13:42;98097.70;;;23.75;35.61
66396;BME280;53207;51.378;-1.342;2022-11-15T08:16:10;98095.23;;;23.74;35.63
66396;BME280;53207;51.378;-1.342;2022-11-15T08:18:37;98093.36;;;23.76;35.57
66396;BME280;53207;51.378;-1.342;2022-11-15T08:21:04;98084.36;;;23.73;35.61
66396;BME280;53207;51.378;-1.342;2022-11-15T08:23:31;98084.04;;;23.72;35.60
66396;BME280;53207;51.378;-1.342;2022-11-15T08:26:00;98083.45;;;23.97;35.57
66396;BME280;53207;51.378;-1.342;2022-11-15T08:28:27;98076.98;;;23.66;35.60
66396;BME280;53207;51.378;-1.342;2022-11-15T08:30:54;98071.71;;;23.65;35.58
66396;BME280;53207;51.378;-1.342;2022-11-15T08:33:21;98066.23;;;23.86;35.62
66396;BME280;53207;51.378;-1.342;2022-11-15T08:35:49;98063.73;;;23.56;35.65
66396;BME280;53207;51.378;-1.342;2022-11-15T08:38:16;98053.66;;;23.81;35.69
66396;BME280;53207;51.378;-1.342;2022-11-15T08:40:43;98055.70;;;23.47;35.77
66396;BME280;53207;51.378;-1.342;2022-11-15T08:43:10;98053.43;;;23.45;35.76
66396;BME280;53207;51.378;-1.342;2022-11-15T08:45:37;98053.58;;;23.95;35.76
66396;BME280;53207;51.378;-1.342;2022-11-15T08:48:05;98048.87;;;23.69;35.81
66396;BME280;53207;51.378;-1.342;2022-11-15T08:50:32;98040.59;;;23.42;35.82
66396;BME280;53207;51.378;-1.342;2022-11-15T08:53:04;98042.17;;;23.60;35.92
66396;BME280;53207;51.378;-1.342;2022-11-15T08:55:32;98034.84;;;23.33;35.85
66396;BME280;53207;51.378;-1.342;2022-11-15T08:57:59;98045.08;;;23.54;36.01
66396;BME280;53207;51.378;-1.342;2022-11-15T09:00:26;98031.16;;;23.76;36.03
66396;BME280;53207;51.378;-1.342;2022-11-15T09:02:53;98026.81;;;23.44;36.19
66396;BME280;53207;51.378;-1.342;2022-11-15T09:05:21;98026.74;;;23.17;36.21
66396;BME280;53207;51.378;-1.342;2022-11-15T09:07:52;98023.33;;;23.63;36.27
66396;BME280;53207;51.378;-1.342;2022-11-15T09:10:20;98021.89;;;23.15;36.22
66396;BME280;53207;51.378;-1.342;2022-11-15T09:12:47;98011.37;;;23.20;36.71
66396;BME280;53207;51.378;-1.342;2022-11-15T09:15:15;98005.25;;;23.48;36.38
66396;BME280;53207;51.378;-1.342;2022-11-15T09:17:42;98009.54;;;23.10;36.55
66396;BME280;53207;51.378;-1.342;2022-11-15T09:20:10;98003.21;;;22.93;36.41
66396;BME280;53207;51.378;-1.342;2022-11-15T09:22:37;97996.95;;;23.32;36.52
66396;BME280;53207;51.378;-1.342;2022-11-15T09:25:05;97994.65;;;23.33;36.47
66396;BME280;53207;51.378;-1.342;2022-11-15T09:27:32;97997.78;;;23.16;36.67
66396;BME280;53207;51.378;-1.342;2022-11-15T09:29:59;97995.63;;;22.82;36.81
66396;BME280;53207;51.378;-1.342;2022-11-15T09:32:28;97988.06;;;23.11;36.69
66396;BME280;53207;51.378;-1.342;2022-11-15T09:34:56;97982.40;;;23.32;36.40
66396;BME280;53207;51.378;-1.342;2022-11-15T09:37:23;97967.90;;;23.17;36.59
66396;BME280;53207;51.378;-1.342;2022-11-15T09:39:50;97968.91;;;23.16;36.60
66396;BME280;53207;51.378;-1.342;2022-11-15T09:42:26;97963.53;;;23.10;36.61
66396;BME280;53207;51.378;-1.342;2022-11-15T09:45:10;97960.12;;;23.06;36.70
66396;BME280;53207;51.378;-1.342;2022-11-15T09:47:56;97955.00;;;23.10;36.63
66396;BME280;53207;51.378;-1.342;2022-11-15T09:50:34;97959.83;;;22.90;36.96
66396;BME280;53207;51.378;-1.342;2022-11-15T09:53:03;97949.26;;;22.81;36.72
66396;BME280;53207;51.378;-1.342;2022-11-15T09:55:38;97944.75;;;22.93;36.94
66396;BME280;53207;51.378;-1.342;2022-11-15T09:58:18;97940.32;;;22.85;36.69
66396;BME280;53207;51.378;-1.342;2022-11-15T10:00:49;97937.80;;;22.85;36.99
66396;BME280;53207;51.378;-1.342;2022-11-15T10:03:24;97932.75;;;22.48;37.45
66396;BME280;53207;51.378;-1.342;2022-11-15T10:05:55;97928.88;;;22.93;36.88
66396;BME280;53207;51.378;-1.342;2022-11-15T10:08:31;97922.76;;;22.53;37.02
66396;BME280;53207;51.378;-1.342;2022-11-15T10:11:04;97909.27;;;22.68;37.10
66396;BME280;53207;51.378;-1.342;2022-11-15T10:13:35;97908.47;;;22.48;37.01
66396;BME280;53207;51.378;-1.342;2022-11-15T10:18:59;97894.49;;;22.72;37.23
66396;BME280;53207;51.378;-1.342;2022-11-15T10:21:35;97891.05;;;22.49;37.23
66396;BME280;53207;51.378;-1.342;2022-11-15T10:24:11;97896.21;;;22.68;36.96
66396;BME280;53207;51.378;-1.342;2022-11-15T10:26:43;97883.52;;;22.81;37.05
66396;BME280;53207;51.378;-1.342;2022-11-15T10:29:18;97888.18;;;22.48;37.13
66396;BME280;53207;51.378;-1.342;2022-11-15T10:31:45;97884.61;;;22.49;37.09
66396;BME280;53207;51.378;-1.342;2022-11-15T10:34:14;97866.97;;;22.43;37.16
66396;BME280;53207;51.378;-1.342;2022-11-15T10:36:45;97868.00;;;22.90;37.24
66396;BME280;53207;51.378;-1.342;2022-11-15T10:39:13;97855.81;;;22.59;37.30
66396;BME280;53207;51.378;-1.342;2022-11-15T10:41:42;97853.05;;;22.39;37.31
66396;BME280;53207;51.378;-1.342;2022-11-15T10:44:22;97843.15;;;22.56;37.46
66396;BME280;53207;51.378;-1.342;2022-11-15T10:47:20;97848.98;;;22.52;37.53
66396;BME280;53207;51.378;-1.342;2022-11-15T10:49:55;97842.81;;;22.55;37.47
66396;BME280;53207;51.378;-1.342;2022-11-15T10:52:22;97842.58;;;22.34;37.48
66396;BME280;53207;51.378;-1.342;2022-11-15T10:54:51;97851.18;;;22.34;37.43
66396;BME280;53207;51.378;-1.342;2022-11-15T10:57:22;97832.39;;;22.49;37.56
66396;BME280;53207;51.378;-1.342;2022-11-15T10:59:51;97827.12;;;22.29;37.55
66396;BME280;53207;51.378;-1.342;2022-11-15T11:02:29;97830.25;;;22.52;37.50
66396;BME280;53207;51.378;-1.342;2022-11-15T11:04:56;97808.06;;;22.50;37.53
66396;BME280;53207;51.378;-1.342;2022-11-15T11:07:26;97796.70;;;22.45;37.58
66396;BME280;53207;51.378;-1.342;2022-11-15T11:09:59;97790.20;;;22.43;37.61
66396;BME280;53207;51.378;-1.342;2022-11-15T11:12:29;97785.14;;;22.77;37.47
66396;BME280;53207;51.378;-1.342;2022-11-15T11:14:58;97782.64;;;22.29;37.41
66396;BME280;53207;51.378;-1.342;2022-11-15T11:17:36;97774.12;;;22.25;37.49
66396;BME280;53207;51.378;-1.342;2022-11-15T11:20:11;97769.35;;;22.28;37.40
66396;BME280;53207;51.378;-1.342;2022-11-15T11:22:56;97759.86;;;22.50;37.40
66396;BME280;53207;51.378;-1.342;2022-11-15T11:25:33;97748.64;;;22.47;37.45
66396;BME280;53207;51.378;-1.342;2022-11-15T11:28:17;97737.57;;;22.25;37.42
66396;BME280;53207;51.378;-1.342;2022-11-15T11:30:58;97732.81;;;22.26;37.41
66396;BME280;53207;51.378;-1.342;2022-11-15T11:33:32;97724.30;;;22.77;37.35
66396;BME280;53207;51.378;-1.342;2022-11-15T11:36:10;97728.95;;;22.75;37.39
66396;BME280;53207;51.378;-1.342;2022-11-15T11:38:47;97723.98;;;22.47;37.37
66396;BME280;53207;51.378;-1.342;2022-11-15T11:41:30;97724.50;;;22.73;37.39
66396;BME280;53207;51.378;-1.342;2022-11-15T11:44:15;97734.15;;;22.71;37.39
66396;BME280;53207;51.378;-1.342;2022-11-15T11:46:49;97734.99;;;22.47;37.34
66396;BME280;53207;51.378;-1.342;2022-11-15T11:49:24;97732.28;;;22.22;37.39
66396;BME280;53207;51.378;-1.342;2022-11-15T11:51:55;97721.06;;;22.46;37.36
66396;BME280;53207;51.378;-1.342;2022-11-15T11:54:31;97732.59;;;22.51;37.30
66396;BME280;53207;51.378;-1.342;2022-11-15T11:57:02;97736.80;;;22.51;37.32
66396;BME280;53207;51.378;-1.342;2022-11-15T11:59:36;97733.88;;;22.27;37.35
66396;BME280;53207;51.378;-1.342;2022-11-15T12:02:14;97738.58;;;22.36;37.22
66396;BME280;53207;51.378;-1.342;2022-11-15T12:04:45;97738.14;;;22.39;37.21
66396;BME280;53207;51.378;-1.342;2022-11-15T12:07:19;97747.17;;;22.65;37.21
66396;BME280;53207;51.378;-1.342;2022-11-15T12:09:54;97739.24;;;22.45;37.53
66396;BME280;53207;51.378;-1.342;2022-11-15T12:12:29;97750.96;;;22.73;37.56
66396;BME280;53207;51.378;-1.342;2022-11-15T12:15:02;97758.72;;;22.22;37.61
66396;BME280;53207;51.378;-1.342;2022-11-15T12:17:30;97752.36;;;22.52;37.51
66396;BME280;53207;51.378;-1.342;2022-11-15T12:19:59;97752.16;;;22.75;37.58
66396;BME280;53207;51.378;-1.342;2022-11-15T12:22:36;97759.06;;;22.31;37.50
66396;BME280;53207;51.378;-1.342;2022-11-15T12:25:14;97759.80;;;22.25;37.57
66396;BME280;53207;51.378;-1.342;2022-11-15T12:27:47;97764.84;;;22.49;37.56
66396;BME280;53207;51.378;-1.342;2022-11-15T12:30:22;97771.16;;;22.59;37.43
66396;BME280;53207;51.378;-1.342;2022-11-15T12:32:52;97768.72;;;22.52;37.52
66396;BME280;53207;51.378;-1.342;2022-11-15T12:35:30;97772.80;;;22.55;37.46
66396;BME280;53207;51.378;-1.342;2022-11-15T12:38:00;97779.02;;;22.37;37.39
66396;BME280;53207;51.378;-1.342;2022-11-15T12:40:30;97785.28;;;22.56;37.44
66396;BME280;53207;51.378;-1.342;2022-11-15T12:43:02;97792.96;;;22.78;37.44
66396;BME280;53207;51.378;-1.342;2022-11-15T12:45:32;97793.88;;;22.63;37.15
66396;BME280;53207;51.378;-1.342;2022-11-15T12:48:47;97796.35;;;22.42;37.12
66396;BME280;53207;51.378;-1.342;2022-11-15T12:51:16;97792.78;;;22.42;37.08
66396;BME280;53207;51.378;-1.342;2022-11-15T12:53:43;97800.71;;;22.48;37.03
66396;BME280;53207;51.378;-1.342;2022-11-15T12:56:21;97804.20;;;22.68;37.03
66396;BME280;53207;51.378;-1.342;2022-11-15T12:58:51;97808.11;;;22.61;37.12
66396;BME280;53207;51.378;-1.342;2022-11-15T13:01:57;97816.79;;;22.66;36.97
66396;BME280;53207;51.378;-1.342;2022-11-15T13:04:28;97817.69;;;22.43;36.90
66396;BME280;53207;51.378;-1.342;2022-11-15T13:06:58;97821.73;;;22.68;36.86
66396;BME280;53207;51.378;-1.342;2022-11-15T13:09:57;97818.29;;;22.63;36.79